Time;durP1;ratioP1;P1;durP2;ratioP2;P2;SDS_P1;SDS_P2;PMS_P1;PMS_P2;Temp;Humidity;BMP_temperature;BMP_pressure;BME280_temperature;BME280_humidity;BME280_pressure;Samples;Min_cycle;Max_cycle;Signal;HPM_P1;HPM_P2
2023/12/24 00:01:20;;;;;;;;;;;9.30;99.90;;;;;;5001306;28;19976;-73
2023/12/24 00:03:47;;;;;;;;;;;9.30;99.90;;;;;;5008032;28;19997;-70
2023/12/24 00:06:15;;;;;;;;;;;9.30;99.90;;;;;;4998531;28;19971;-71
2023/12/24 00:08:43;;;;;;;;;;;9.30;99.90;;;;;;4998278;28;19929;-71
2023/12/24 00:11:11;;;;;;;;;;;9.50;99.90;;;;;;5000873;28;19929;-70
2023/12/24 00:13:40;;;;;;;;;;;9.50;99.90;;;;;;4996519;28;19947;-71
2023/12/24 00:16:08;;;;;;;;;;;9.50;99.90;;;;;;5003256;28;19928;-70
2023/12/24 00:18:36;;;;;;;;;;;9.50;99.90;;;;;;5002000;28;20384;-71
2023/12/24 00:21:04;;;;;;;;;;;9.50;99.90;;;;;;5007973;28;20392;-71
2023/12/24 00:23:31;;;;;;;;;;;9.50;99.90;;;;;;5007181;28;19928;-71
2023/12/24 00:25:59;;;;;;;;;;;9.60;99.90;;;;;;5000674;28;20008;-72
2023/12/24 00:28:27;;;;;;;;;;;9.60;99.90;;;;;;5009305;28;19928;-72
2023/12/24 00:30:56;;;;;;;;;;;9.60;99.90;;;;;;5004062;28;19931;-72
2023/12/24 00:33:24;;;;;;;;;;;9.60;99.90;;;;;;5007659;28;20388;-72
2023/12/24 00:35:52;;;;;;;;;;;9.60;99.90;;;;;;5007822;28;20008;-72
2023/12/24 00:38:20;;;;;;;;;;;9.60;99.90;;;;;;4998426;28;19929;-74
2023/12/24 00:40:48;;;;;;;;;;;9.70;99.90;;;;;;5009363;28;20468;-74
2023/12/24 00:43:16;;;;;;;;;;;9.70;99.90;;;;;;5004121;28;19922;-72
2023/12/24 00:45:44;;;;;;;;;;;9.70;99.90;;;;;;5002306;28;19928;-72
2023/12/24 00:48:13;;;;;;;;;;;9.70;99.90;;;;;;5006718;28;20404;-74
2023/12/24 00:50:41;;;;;;;;;;;9.70;99.90;;;;;;5004047;28;19930;-73
2023/12/24 00:53:09;;;;;;;;;;;9.70;99.90;;;;;;5010085;28;19961;-73
2023/12/24 00:55:39;;;;;;;;;;;9.70;99.90;;;;;;4996191;28;19961;-71
2023/12/24 00:58:07;;;;;;;;;;;9.80;99.90;;;;;;5011369;28;19922;-73
2023/12/24 01:00:35;;;;;;;;;;;9.80;99.90;;;;;;5011057;28;19925;-73
2023/12/24 01:03:03;;;;;;;;;;;9.80;99.90;;;;;;5009554;28;20015;-73
2023/12/24 01:05:32;;;;;;;;;;;9.80;99.90;;;;;;5004930;28;19928;-74
2023/12/24 01:08:00;;;;;;;;;;;9.80;99.90;;;;;;5009984;28;19925;-72
2023/12/24 01:10:28;;;;;;;;;;;9.80;99.90;;;;;;5011989;28;19921;-71
2023/12/24 01:12:56;;;;;;;;;;;9.80;99.90;;;;;;5004051;28;19922;-71
2023/12/24 01:15:24;;;;;;;;;;;9.80;99.90;;;;;;5011251;28;20308;-71
2023/12/24 01:17:51;;;;;;;;;;;9.90;99.90;;;;;;5010556;28;20368;-72
2023/12/24 01:20:20;;;;;;;;;;;9.90;99.90;;;;;;5009958;28;20412;-73
2023/12/24 01:22:49;;;;;;;;;;;9.90;99.90;;;;;;5010842;28;20011;-71
2023/12/24 01:25:17;;;;;;;;;;;9.90;99.90;;;;;;4999953;28;19921;-71
2023/12/24 01:27:45;;;;;;;;;;;9.90;99.90;;;;;;4997621;28;19921;-71
2023/12/24 01:30:13;;;;;;;;;;;9.90;99.90;;;;;;5010724;28;20012;-71
2023/12/24 01:32:40;;;;;;;;;;;9.90;99.90;;;;;;5002645;28;19928;-70
2023/12/24 01:35:09;;;;;;;;;;;9.90;99.90;;;;;;5010532;28;20327;-71
2023/12/24 01:37:37;;;;;;;;;;;9.90;99.90;;;;;;5010583;28;19933;-73
2023/12/24 01:40:06;;;;;;;;;;;9.90;99.90;;;;;;5010460;28;19958;-72
2023/12/24 01:42:34;;;;;;;;;;;9.90;99.90;;;;;;5010221;28;19925;-72
2023/12/24 01:45:02;;;;;;;;;;;9.90;99.90;;;;;;5010590;28;19968;-72
2023/12/24 01:47:30;;;;;;;;;;;9.90;99.90;;;;;;5015939;28;20388;-72
2023/12/24 01:49:58;;;;;;;;;;;9.90;99.90;;;;;;5010331;28;19968;-72
2023/12/24 01:52:26;;;;;;;;;;;9.90;99.90;;;;;;5010663;28;19922;-73
2023/12/24 01:54:54;;;;;;;;;;;9.90;99.90;;;;;;5002393;28;20448;-72
2023/12/24 01:57:23;;;;;;;;;;;9.90;99.90;;;;;;5002725;28;19975;-72
2023/12/24 01:59:52;;;;;;;;;;;10.00;99.90;;;;;;5010160;28;19925;-71
2023/12/24 02:02:20;;;;;;;;;;;10.00;99.90;;;;;;5010129;28;19921;-72
2023/12/24 02:04:49;;;;;;;;;;;10.00;99.90;;;;;;5010608;28;20012;-73
2023/12/24 02:07:17;;;;;;;;;;;10.00;99.90;;;;;;5010475;28;19937;-72
2023/12/24 02:09:45;;;;;;;;;;;9.90;99.90;;;;;;5009799;28;19926;-72
2023/12/24 02:12:13;;;;;;;;;;;10.00;99.90;;;;;;5010366;28;19921;-73
2023/12/24 02:14:42;;;;;;;;;;;10.00;99.90;;;;;;5002087;28;19922;-71
2023/12/24 02:17:10;;;;;;;;;;;10.00;99.90;;;;;;5010653;28;19925;-72
2023/12/24 02:19:38;;;;;;;;;;;10.00;99.90;;;;;;5010144;28;19960;-71
2023/12/24 02:22:07;;;;;;;;;;;10.00;99.90;;;;;;5010050;28;19976;-72
2023/12/24 02:24:35;;;;;;;;;;;10.00;99.90;;;;;;5004852;28;19976;-72
2023/12/24 02:27:06;;;;;;;;;;;10.00;99.90;;;;;;4991542;28;20324;-72
2023/12/24 02:29:38;;;;;;;;;;;10.00;99.90;;;;;;5009743;28;20415;-72
2023/12/24 02:32:11;;;;;;;;;;;10.00;99.90;;;;;;5011636;28;19960;-72
2023/12/24 02:34:40;;;;;;;;;;;10.10;99.90;;;;;;5013678;28;19925;-72
2023/12/24 02:37:09;;;;;;;;;;;10.00;99.90;;;;;;5013597;28;19925;-72
2023/12/24 02:39:37;;;;;;;;;;;10.00;99.90;;;;;;5015204;28;19921;-71
2023/12/24 02:42:05;;;;;;;;;;;10.00;99.90;;;;;;5015818;28;19921;-71
2023/12/24 02:44:33;;;;;;;;;;;10.00;99.90;;;;;;5013466;28;19930;-71
2023/12/24 02:47:01;;;;;;;;;;;10.00;99.90;;;;;;5018492;28;19929;-71
2023/12/24 02:49:29;;;;;;;;;;;10.00;99.90;;;;;;5013332;28;19921;-71
2023/12/24 02:51:57;;;;;;;;;;;10.00;99.90;;;;;;5013577;28;19976;-72
2023/12/24 02:54:26;;;;;;;;;;;10.00;99.90;;;;;;5001926;28;19973;-73
2023/12/24 02:56:53;;;;;;;;;;;9.90;99.90;;;;;;5001052;28;19928;-72
2023/12/24 02:59:21;;;;;;;;;;;9.90;99.90;;;;;;5012652;28;19922;-72
2023/12/24 03:01:49;;;;;;;;;;;9.90;99.90;;;;;;5013233;28;19925;-74
2023/12/24 03:04:17;;;;;;;;;;;9.90;99.90;;;;;;5012824;28;20289;-72
2023/12/24 03:06:44;;;;;;;;;;;10.00;99.90;;;;;;5013364;28;19925;-72
2023/12/24 03:09:12;;;;;;;;;;;9.90;99.90;;;;;;5012142;28;20277;-72
2023/12/24 03:11:41;;;;;;;;;;;9.80;99.90;;;;;;5012895;28;19944;-76
2023/12/24 03:14:09;;;;;;;;;;;9.80;99.90;;;;;;5012588;28;19921;-72
2023/12/24 03:16:37;;;;;;;;;;;9.90;99.90;;;;;;5013245;28;19921;-72
2023/12/24 03:19:05;;;;;;;;;;;9.90;99.90;;;;;;5012325;28;19921;-72
2023/12/24 03:21:33;;;;;;;;;;;9.90;99.90;;;;;;5012970;28;19921;-72
2023/12/24 03:24:00;;;;;;;;;;;9.80;99.90;;;;;;5011856;28;19983;-71
2023/12/24 03:26:29;;;;;;;;;;;9.80;99.90;;;;;;4993260;28;19921;-70
2023/12/24 03:29:00;;;;;;;;;;;9.80;99.90;;;;;;5008743;28;19940;-71
2023/12/24 03:31:28;;;;;;;;;;;9.80;99.90;;;;;;5005386;28;20292;-69
2023/12/24 03:33:56;;;;;;;;;;;9.80;99.90;;;;;;5012913;28;20337;-70
2023/12/24 03:36:24;;;;;;;;;;;9.80;99.90;;;;;;5004531;28;19932;-70
2023/12/24 03:38:53;;;;;;;;;;;9.80;99.90;;;;;;5011971;28;19921;-71
2023/12/24 03:41:21;;;;;;;;;;;9.80;99.90;;;;;;5012173;28;19925;-70
2023/12/24 03:43:48;;;;;;;;;;;9.80;99.90;;;;;;5012419;28;19972;-72
2023/12/24 03:46:19;;;;;;;;;;;9.80;99.90;;;;;;5017876;28;19925;-72
2023/12/24 03:48:47;;;;;;;;;;;9.70;99.90;;;;;;5012050;28;19921;-72
2023/12/24 03:51:17;;;;;;;;;;;9.70;99.90;;;;;;5011870;28;20516;-72
2023/12/24 03:53:45;;;;;;;;;;;9.70;99.90;;;;;;5011935;28;19922;-71
2023/12/24 03:56:13;;;;;;;;;;;9.70;99.90;;;;;;5002290;28;20340;-71
2023/12/24 03:58:41;;;;;;;;;;;9.70;99.90;;;;;;5006199;28;19971;-74
2023/12/24 04:01:09;;;;;;;;;;;9.70;99.90;;;;;;5012062;28;19925;-72
2023/12/24 04:03:38;;;;;;;;;;;9.70;99.90;;;;;;5012045;28;20456;-72
2023/12/24 04:06:10;;;;;;;;;;;9.60;99.90;;;;;;5011577;28;19922;-74
2023/12/24 04:08:37;;;;;;;;;;;9.60;99.90;;;;;;5011571;28;19922;-72
2023/12/24 04:11:11;;;;;;;;;;;9.60;99.90;;;;;;5011883;28;19921;-71
2023/12/24 04:13:39;;;;;;;;;;;9.60;99.90;;;;;;5011952;28;20438;-72
2023/12/24 04:16:07;;;;;;;;;;;9.70;99.90;;;;;;5011892;28;20392;-73
2023/12/24 04:18:35;;;;;;;;;;;9.70;99.90;;;;;;5011212;28;20367;-74
2023/12/24 04:21:05;;;;;;;;;;;9.60;99.90;;;;;;5010995;28;20455;-72
2023/12/24 04:23:32;;;;;;;;;;;9.60;99.90;;;;;;5011173;28;19953;-71
2023/12/24 04:26:00;;;;;;;;;;;9.70;99.90;;;;;;5008689;28;19921;-71
2023/12/24 04:28:28;;;;;;;;;;;9.70;99.90;;;;;;5009066;28;20395;-73
2023/12/24 04:30:56;;;;;;;;;;;9.70;99.90;;;;;;5000832;28;19928;-74
2023/12/24 04:33:24;;;;;;;;;;;9.70;99.90;;;;;;5009926;28;19929;-73
2023/12/24 04:35:52;;;;;;;;;;;9.70;99.90;;;;;;5010857;28;20446;-75
2023/12/24 04:38:21;;;;;;;;;;;9.80;99.90;;;;;;5011256;28;19929;-73
2023/12/24 04:40:49;;;;;;;;;;;9.70;99.90;;;;;;5016346;28;19925;-74
2023/12/24 04:43:16;;;;;;;;;;;9.70;99.90;;;;;;5008420;28;19953;-74
2023/12/24 04:45:44;;;;;;;;;;;9.70;99.90;;;;;;5005638;28;19940;-74
2023/12/24 04:48:12;;;;;;;;;;;9.80;99.90;;;;;;5008730;28;19933;-72
2023/12/24 04:50:40;;;;;;;;;;;9.70;99.90;;;;;;5008300;28;19985;-72
2023/12/24 04:53:08;;;;;;;;;;;9.70;99.90;;;;;;5008257;28;19932;-72
2023/12/24 04:55:37;;;;;;;;;;;9.70;99.90;;;;;;5000299;28;19933;-72
2023/12/24 04:58:05;;;;;;;;;;;9.70;99.90;;;;;;4997717;28;19925;-72
2023/12/24 05:00:32;;;;;;;;;;;9.70;99.90;;;;;;5007841;28;19929;-72
2023/12/24 05:03:00;;;;;;;;;;;9.70;99.90;;;;;;5007753;28;19921;-75
2023/12/24 05:05:28;;;;;;;;;;;9.70;99.90;;;;;;5008612;28;19932;-73
2023/12/24 05:07:56;;;;;;;;;;;9.70;99.90;;;;;;5007976;28;19936;-75
2023/12/24 05:10:24;;;;;;;;;;;9.70;99.90;;;;;;5007074;28;19925;-74
2023/12/24 05:12:53;;;;;;;;;;;9.70;99.90;;;;;;5008361;28;20002;-73
2023/12/24 05:15:21;;;;;;;;;;;9.70;99.90;;;;;;5007541;28;20039;-73
2023/12/24 05:17:48;;;;;;;;;;;9.70;99.90;;;;;;5009039;28;19984;-73
2023/12/24 05:20:16;;;;;;;;;;;9.70;99.90;;;;;;5006191;28;19929;-71
2023/12/24 05:22:45;;;;;;;;;;;9.60;99.90;;;;;;5008145;28;19932;-73
2023/12/24 05:25:12;;;;;;;;;;;9.60;99.90;;;;;;5006254;28;20364;-73
2023/12/24 05:27:41;;;;;;;;;;;9.50;99.90;;;;;;5007993;28;19925;-73
2023/12/24 05:30:11;;;;;;;;;;;9.50;99.90;;;;;;5007167;28;19937;-73
2023/12/24 05:32:39;;;;;;;;;;;9.50;99.90;;;;;;5002461;28;20953;-74
2023/12/24 05:35:07;;;;;;;;;;;9.40;99.90;;;;;;5006056;28;19925;-73
2023/12/24 05:37:35;;;;;;;;;;;9.40;99.90;;;;;;5006307;28;19929;-72
2023/12/24 05:40:04;;;;;;;;;;;9.40;99.90;;;;;;5001867;28;20385;-71
2023/12/24 05:42:34;;;;;;;;;;;9.40;99.90;;;;;;5004169;28;19926;-72
2023/12/24 05:45:02;;;;;;;;;;;9.30;99.90;;;;;;5007108;28;19925;-75
2023/12/24 05:47:34;;;;;;;;;;;9.20;99.90;;;;;;5008098;28;19921;-75
2023/12/24 05:50:04;;;;;;;;;;;9.10;99.90;;;;;;5007790;28;19964;-73
2023/12/24 05:52:32;;;;;;;;;;;9.10;99.90;;;;;;4998775;28;20005;-73
2023/12/24 05:55:00;;;;;;;;;;;9.10;99.90;;;;;;5004944;28;19925;-74
2023/12/24 05:57:28;;;;;;;;;;;9.00;99.90;;;;;;5008068;28;19921;-75
2023/12/24 05:59:57;;;;;;;;;;;9.00;99.90;;;;;;4997631;28;19929;-73
2023/12/24 06:02:25;;;;;;;;;;;8.90;99.90;;;;;;5003264;28;19925;-74
2023/12/24 06:04:54;;;;;;;;;;;8.90;99.90;;;;;;4990965;28;19975;-76
2023/12/24 06:07:21;;;;;;;;;;;8.90;99.90;;;;;;5012423;28;19925;-74
2023/12/24 06:09:49;;;;;;;;;;;8.90;99.90;;;;;;5004884;28;19922;-74
2023/12/24 06:12:17;;;;;;;;;;;8.90;99.90;;;;;;5007881;28;19983;-72
2023/12/24 06:14:45;;;;;;;;;;;8.90;99.90;;;;;;5005399;28;19921;-74
2023/12/24 06:17:12;;;;;;;;;;;8.80;99.90;;;;;;5009417;28;20008;-73
2023/12/24 06:19:40;;;;;;;;;;;8.80;99.90;;;;;;5003742;28;20024;-74
2023/12/24 06:22:09;;;;;;;;;;;8.80;99.90;;;;;;5007776;28;19936;-74
2023/12/24 06:24:37;;;;;;;;;;;8.80;99.90;;;;;;5004536;28;19933;-75
2023/12/24 06:27:05;;;;;;;;;;;8.80;99.90;;;;;;5004053;28;19921;-73
2023/12/24 06:29:33;;;;;;;;;;;8.80;99.90;;;;;;5000447;28;19928;-74
2023/12/24 06:32:01;;;;;;;;;;;8.80;99.90;;;;;;5011063;28;19929;-74
2023/12/24 06:34:28;;;;;;;;;;;8.80;99.90;;;;;;5005929;28;20340;-74
2023/12/24 06:36:56;;;;;;;;;;;8.80;99.90;;;;;;5002965;28;19929;-76
2023/12/24 06:39:25;;;;;;;;;;;8.80;99.90;;;;;;5007046;28;19929;-77
2023/12/24 06:41:54;;;;;;;;;;;8.80;99.90;;;;;;5006477;28;19925;-74
2023/12/24 06:44:22;;;;;;;;;;;8.70;99.90;;;;;;5006717;28;19928;-74
2023/12/24 06:46:50;;;;;;;;;;;8.70;99.90;;;;;;5008952;28;19929;-76
2023/12/24 06:49:18;;;;;;;;;;;8.70;99.90;;;;;;5005892;28;19936;-74
2023/12/24 06:51:46;;;;;;;;;;;8.70;99.90;;;;;;5008848;28;20013;-73
2023/12/24 06:54:14;;;;;;;;;;;8.70;99.90;;;;;;5005294;28;19976;-73
2023/12/24 06:56:43;;;;;;;;;;;8.60;99.90;;;;;;5009932;28;19925;-72
2023/12/24 06:59:11;;;;;;;;;;;8.60;99.90;;;;;;5009184;28;19936;-75
2023/12/24 07:01:39;;;;;;;;;;;8.80;99.90;;;;;;5006860;28;19944;-74
2023/12/24 07:04:07;;;;;;;;;;;8.60;99.90;;;;;;5004803;28;19921;-74
2023/12/24 07:06:34;;;;;;;;;;;8.60;99.90;;;;;;5008435;28;19926;-73
2023/12/24 07:09:02;;;;;;;;;;;8.60;99.90;;;;;;5005104;28;20474;-72
2023/12/24 07:11:30;;;;;;;;;;;8.50;99.90;;;;;;5009261;28;19926;-73
2023/12/24 07:13:59;;;;;;;;;;;8.50;99.90;;;;;;5008089;28;19932;-72
2023/12/24 07:16:27;;;;;;;;;;;8.50;99.90;;;;;;5004711;28;19921;-72
2023/12/24 07:18:54;;;;;;;;;;;8.50;99.90;;;;;;5005764;28;19929;-71
2023/12/24 07:21:22;;;;;;;;;;;8.60;99.90;;;;;;5007371;28;20388;-72
2023/12/24 07:23:50;;;;;;;;;;;8.60;99.90;;;;;;5009026;28;19930;-73
2023/12/24 07:26:18;;;;;;;;;;;8.60;99.90;;;;;;5003964;28;19925;-73
2023/12/24 07:28:46;;;;;;;;;;;8.50;99.90;;;;;;5009875;28;20412;-72
2023/12/24 07:31:15;;;;;;;;;;;8.50;99.90;;;;;;5012871;28;19928;-73
2023/12/24 07:33:43;;;;;;;;;;;8.50;99.90;;;;;;5013036;28;19936;-73
2023/12/24 07:36:11;;;;;;;;;;;8.50;99.90;;;;;;5012724;28;19921;-73
2023/12/24 07:38:39;;;;;;;;;;;8.50;99.90;;;;;;5010983;28;20368;-73
2023/12/24 07:41:08;;;;;;;;;;;8.60;99.90;;;;;;5012061;28;20395;-72
2023/12/24 07:43:36;;;;;;;;;;;8.60;99.90;;;;;;5006504;28;19921;-73
2023/12/24 07:46:04;;;;;;;;;;;8.60;99.90;;;;;;5011396;28;20309;-73
2023/12/24 07:48:33;;;;;;;;;;;8.60;99.90;;;;;;5011583;28;19992;-72
2023/12/24 07:51:01;;;;;;;;;;;8.60;99.90;;;;;;5011262;28;19929;-72
2023/12/24 07:53:28;;;;;;;;;;;8.60;99.90;;;;;;5000058;28;19926;-72
2023/12/24 07:55:56;;;;;;;;;;;8.60;99.90;;;;;;5007943;28;20754;-72
2023/12/24 07:58:24;;;;;;;;;;;8.50;99.90;;;;;;5009932;28;19936;-70
2023/12/24 08:00:52;;;;;;;;;;;8.50;99.90;;;;;;5003179;28;20463;-70
2023/12/24 08:03:20;;;;;;;;;;;8.50;99.90;;;;;;5008994;28;19922;-71
2023/12/24 08:05:49;;;;;;;;;;;8.60;99.90;;;;;;5008143;28;19957;-70
2023/12/24 08:08:17;;;;;;;;;;;8.60;99.90;;;;;;5000057;28;19944;-70
2023/12/24 08:10:45;;;;;;;;;;;8.60;99.90;;;;;;4996203;28;20047;-71
2023/12/24 08:13:14;;;;;;;;;;;8.60;99.90;;;;;;5002794;28;20335;-71
2023/12/24 08:15:42;;;;;;;;;;;8.60;99.90;;;;;;5003708;28;20365;-69
2023/12/24 08:18:10;;;;;;;;;;;8.60;99.90;;;;;;5001914;28;20319;-70
2023/12/24 08:20:38;;;;;;;;;;;8.60;99.90;;;;;;5004198;28;20582;-71
2023/12/24 08:23:09;;;;;;;;;;;8.70;99.90;;;;;;5000585;28;19933;-71
2023/12/24 08:25:37;;;;;;;;;;;8.60;99.90;;;;;;5002335;28;19933;-70
2023/12/24 08:28:06;;;;;;;;;;;8.70;99.90;;;;;;5002074;28;19936;-69
2023/12/24 08:30:33;;;;;;;;;;;8.70;99.90;;;;;;5000616;28;20116;-71
2023/12/24 08:33:01;;;;;;;;;;;8.70;99.90;;;;;;5000213;28;19929;-69
2023/12/24 08:35:29;;;;;;;;;;;8.70;99.90;;;;;;5000576;28;19935;-70
2023/12/24 08:37:57;;;;;;;;;;;8.70;99.90;;;;;;5000667;28;19925;-70
2023/12/24 08:40:27;;;;;;;;;;;8.80;99.90;;;;;;4999829;28;19929;-69
2023/12/24 08:42:55;;;;;;;;;;;8.70;99.90;;;;;;4999883;28;19990;-69
2023/12/24 08:45:23;;;;;;;;;;;8.70;99.90;;;;;;5000067;28;19929;-70
2023/12/24 08:47:50;;;;;;;;;;;8.70;99.90;;;;;;5000417;28;19929;-70
2023/12/24 08:50:18;;;;;;;;;;;8.70;99.90;;;;;;5000230;28;19930;-70
2023/12/24 08:52:46;;;;;;;;;;;8.70;99.90;;;;;;5000462;28;19951;-71
2023/12/24 08:55:15;;;;;;;;;;;8.70;99.90;;;;;;5000228;28;19933;-70
2023/12/24 08:57:45;;;;;;;;;;;8.80;99.90;;;;;;5000329;28;19922;-70
2023/12/24 09:00:14;;;;;;;;;;;8.80;99.90;;;;;;4999774;28;21306;-70
2023/12/24 09:02:41;;;;;;;;;;;8.80;99.90;;;;;;4981918;28;19930;-70
2023/12/24 09:05:14;;;;;;;;;;;8.90;99.90;;;;;;5000432;28;20988;-69
2023/12/24 09:07:42;;;;;;;;;;;8.90;99.90;;;;;;5000345;28;20470;-71
2023/12/24 09:10:10;;;;;;;;;;;9.00;99.90;;;;;;5000240;28;19929;-70
2023/12/24 09:12:37;;;;;;;;;;;8.90;99.90;;;;;;5000950;28;19929;-71
2023/12/24 09:15:07;;;;;;;;;;;9.00;99.90;;;;;;4999802;28;19929;-69
2023/12/24 09:17:34;;;;;;;;;;;9.00;99.90;;;;;;5001059;28;19936;-72
2023/12/24 09:20:04;;;;;;;;;;;9.10;99.90;;;;;;4999830;28;20063;-72
2023/12/24 09:22:34;;;;;;;;;;;9.10;99.90;;;;;;5000955;28;20052;-71
2023/12/24 09:25:01;;;;;;;;;;;9.10;99.90;;;;;;4999224;28;19929;-70
2023/12/24 09:27:29;;;;;;;;;;;9.10;99.90;;;;;;5000526;28;20793;-70
2023/12/24 09:29:57;;;;;;;;;;;9.10;99.90;;;;;;4999878;28;19929;-72
2023/12/24 09:32:26;;;;;;;;;;;9.20;99.90;;;;;;4999668;28;19976;-70
2023/12/24 09:34:54;;;;;;;;;;;9.20;99.90;;;;;;4999827;28;19929;-70
2023/12/24 09:37:21;;;;;;;;;;;9.20;99.90;;;;;;4999921;28;19926;-71
2023/12/24 09:39:49;;;;;;;;;;;9.20;99.90;;;;;;4999606;28;19932;-70
2023/12/24 09:42:17;;;;;;;;;;;9.30;99.90;;;;;;4999669;28;19936;-71
2023/12/24 09:44:45;;;;;;;;;;;9.30;99.90;;;;;;5002186;28;20044;-70
2023/12/24 09:47:13;;;;;;;;;;;9.30;99.90;;;;;;5003314;28;20265;-69
2023/12/24 09:49:42;;;;;;;;;;;9.30;99.90;;;;;;5001242;28;20044;-70
2023/12/24 09:52:10;;;;;;;;;;;9.30;99.90;;;;;;5002482;28;19959;-70
2023/12/24 09:54:38;;;;;;;;;;;9.30;99.90;;;;;;5002850;28;19952;-70
2023/12/24 09:57:07;;;;;;;;;;;9.30;99.90;;;;;;5003640;28;19925;-70
2023/12/24 09:59:34;;;;;;;;;;;9.30;99.90;;;;;;5002164;28;19937;-70
2023/12/24 10:02:02;;;;;;;;;;;9.20;99.90;;;;;;5003239;28;19929;-70
2023/12/24 10:04:30;;;;;;;;;;;9.30;99.90;;;;;;5002303;28;19934;-69
2023/12/24 10:07:00;;;;;;;;;;;9.30;99.90;;;;;;5002685;28;19930;-70
2023/12/24 10:09:42;;;;;;;;;;;9.30;99.90;;;;;;5001619;28;19929;-70
2023/12/24 10:12:10;;;;;;;;;;;9.30;99.90;;;;;;5001819;28;20204;-71
2023/12/24 10:14:38;;;;;;;;;;;9.30;99.90;;;;;;5002738;28;19936;-71
2023/12/24 10:17:06;;;;;;;;;;;9.40;99.90;;;;;;5003690;28;19925;-71
2023/12/24 10:19:35;;;;;;;;;;;9.40;99.90;;;;;;5003490;28;19929;-71
2023/12/24 10:22:05;;;;;;;;;;;9.40;99.90;;;;;;5004394;28;20501;-71
2023/12/24 10:24:34;;;;;;;;;;;9.40;99.90;;;;;;5003173;28;19937;-73
2023/12/24 10:27:06;;;;;;;;;;;9.50;99.90;;;;;;5002638;28;19944;-71
2023/12/24 10:29:35;;;;;;;;;;;9.50;99.90;;;;;;5002938;28;19930;-71
2023/12/24 10:32:03;;;;;;;;;;;9.50;99.90;;;;;;5004390;28;20450;-71
2023/12/24 10:34:32;;;;;;;;;;;9.50;99.90;;;;;;5004831;28;19925;-72
2023/12/24 10:37:16;;;;;;;;;;;9.50;99.90;;;;;;5004096;28;20012;-71
2023/12/24 10:39:44;;;;;;;;;;;9.60;99.90;;;;;;5004005;28;19929;-71
2023/12/24 10:42:11;;;;;;;;;;;9.60;99.90;;;;;;5003991;28;19929;-72
2023/12/24 10:44:40;;;;;;;;;;;9.70;99.90;;;;;;5005330;28;19975;-72
2023/12/24 10:47:08;;;;;;;;;;;9.70;99.90;;;;;;5010100;28;19929;-71
2023/12/24 10:49:36;;;;;;;;;;;9.80;99.90;;;;;;5008650;28;19932;-78
2023/12/24 10:52:06;;;;;;;;;;;10.10;99.90;;;;;;5007920;28;19937;-76
2023/12/24 10:54:34;;;;;;;;;;;10.10;99.90;;;;;;5006176;28;19930;-75
2023/12/24 10:57:09;;;;;;;;;;;10.20;99.90;;;;;;5007000;28;20035;-75
2023/12/24 10:59:52;;;;;;;;;;;10.20;99.90;;;;;;5007089;28;19929;-75
2023/12/24 11:02:21;;;;;;;;;;;10.20;99.90;;;;;;5006632;28;19929;-76
2023/12/24 11:04:49;;;;;;;;;;;10.30;99.90;;;;;;5006283;28;19925;-74
2023/12/24 11:07:32;;;;;;;;;;;10.40;99.90;;;;;;5005792;28;19929;-77
2023/12/24 11:10:01;;;;;;;;;;;10.40;99.90;;;;;;5006823;28;21121;-76
2023/12/24 11:12:32;;;;;;;;;;;10.30;99.90;;;;;;5005532;28;21171;-75
2023/12/24 11:15:01;;;;;;;;;;;10.40;99.90;;;;;;5005078;28;19924;-76
2023/12/24 11:17:47;;;;;;;;;;;10.40;99.90;;;;;;5006561;28;20819;-72
2023/12/24 11:20:38;;;;;;;;;;;10.30;99.90;;;;;;5003054;28;19972;-70
2023/12/24 11:23:12;;;;;;;;;;;10.30;99.90;;;;;;5003122;28;20040;-69
2023/12/24 11:25:42;;;;;;;;;;;10.20;99.90;;;;;;5000219;28;19933;-70
2023/12/24 11:28:12;;;;;;;;;;;10.10;99.90;;;;;;5002203;28;20013;-69
2023/12/24 11:30:58;;;;;;;;;;;10.10;99.90;;;;;;5000729;28;20020;-70
2023/12/24 11:33:41;;;;;;;;;;;10.10;99.90;;;;;;5001380;28;21001;-70
2023/12/24 11:36:09;;;;;;;;;;;10.20;99.90;;;;;;4999584;28;19932;-69
2023/12/24 11:38:40;;;;;;;;;;;10.20;99.90;;;;;;5001144;28;19933;-70
2023/12/24 11:41:10;;;;;;;;;;;10.20;99.90;;;;;;5001594;28;20027;-69
2023/12/24 11:43:39;;;;;;;;;;;10.20;99.90;;;;;;5000885;28;19937;-69
2023/12/24 11:46:07;;;;;;;;;;;10.30;99.90;;;;;;5001743;28;20412;-69
2023/12/24 11:48:36;;;;;;;;;;;10.20;99.90;;;;;;5000266;28;19929;-71
2023/12/24 11:51:06;;;;;;;;;;;10.30;99.90;;;;;;5000591;28;19930;-70
2023/12/24 11:53:34;;;;;;;;;;;10.30;99.90;;;;;;4983267;28;20320;-71
2023/12/24 11:56:03;;;;;;;;;;;10.30;99.90;;;;;;4998883;28;20067;-71
2023/12/24 11:58:32;;;;;;;;;;;10.30;99.90;;;;;;4999755;28;20015;-69
2023/12/24 12:01:02;;;;;;;;;;;10.30;99.90;;;;;;5000772;28;19929;-70
2023/12/24 12:03:30;;;;;;;;;;;10.30;99.90;;;;;;4999958;28;19933;-69
2023/12/24 12:05:58;;;;;;;;;;;10.20;99.90;;;;;;5000723;28;20372;-70
2023/12/24 12:08:29;;;;;;;;;;;10.20;99.90;;;;;;4999930;28;19926;-70
2023/12/24 12:10:57;;;;;;;;;;;10.20;99.90;;;;;;4999903;28;20026;-70
2023/12/24 12:13:25;;;;;;;;;;;10.20;99.90;;;;;;5000491;28;19932;-70
2023/12/24 12:15:54;;;;;;;;;;;10.20;99.90;;;;;;4998843;28;20007;-70
2023/12/24 12:18:22;;;;;;;;;;;10.10;99.90;;;;;;4999060;28;19925;-69
2023/12/24 12:20:50;;;;;;;;;;;10.20;99.90;;;;;;5000188;28;19929;-70
2023/12/24 12:23:19;;;;;;;;;;;10.20;99.90;;;;;;5000817;28;19929;-70
2023/12/24 12:25:47;;;;;;;;;;;10.30;99.90;;;;;;4999044;28;19928;-70
2023/12/24 12:28:15;;;;;;;;;;;10.30;99.90;;;;;;4999676;28;19929;-69
2023/12/24 12:30:45;;;;;;;;;;;10.30;99.90;;;;;;5000513;28;19929;-70
2023/12/24 12:33:14;;;;;;;;;;;10.30;99.90;;;;;;4999409;28;20442;-71
2023/12/24 12:35:42;;;;;;;;;;;10.30;99.90;;;;;;4999607;28;20312;-69
2023/12/24 12:38:10;;;;;;;;;;;10.30;99.90;;;;;;4999498;28;19929;-69
2023/12/24 12:40:38;;;;;;;;;;;10.40;99.90;;;;;;4999248;28;19929;-69
2023/12/24 12:43:15;;;;;;;;;;;10.30;99.90;;;;;;5000276;28;19921;-70
2023/12/24 12:45:43;;;;;;;;;;;10.30;99.90;;;;;;4998839;28;20416;-71
2023/12/24 12:48:11;;;;;;;;;;;10.40;99.90;;;;;;4997876;28;19992;-72
2023/12/24 12:50:42;;;;;;;;;;;10.40;99.90;;;;;;4999401;28;20310;-71
2023/12/24 12:53:09;;;;;;;;;;;10.40;99.90;;;;;;4999834;28;19932;-71
2023/12/24 12:55:37;;;;;;;;;;;10.40;99.90;;;;;;5000208;28;19929;-71
2023/12/24 12:58:11;;;;;;;;;;;10.40;99.90;;;;;;4999871;28;19955;-69
2023/12/24 13:00:39;;;;;;;;;;;10.40;99.90;;;;;;5000537;28;19948;-72
2023/12/24 13:03:07;;;;;;;;;;;10.40;99.90;;;;;;4999830;28;19936;-71
2023/12/24 13:05:35;;;;;;;;;;;10.40;99.90;;;;;;5000094;28;19980;-70
2023/12/24 13:08:14;;;;;;;;;;;10.40;99.90;;;;;;4999985;28;20011;-73
2023/12/24 13:10:42;;;;;;;;;;;10.40;99.90;;;;;;4999676;28;20392;-71
2023/12/24 13:13:11;;;;;;;;;;;10.40;99.90;;;;;;5000353;28;19961;-70
2023/12/24 13:15:40;;;;;;;;;;;10.40;99.90;;;;;;4999250;28;20040;-70
2023/12/24 13:18:18;;;;;;;;;;;10.40;99.90;;;;;;4999966;28;20127;-70
2023/12/24 13:20:47;;;;;;;;;;;10.40;99.90;;;;;;5000740;28;19929;-72
2023/12/24 13:23:16;;;;;;;;;;;10.50;99.90;;;;;;5001275;28;19936;-70
2023/12/24 13:25:44;;;;;;;;;;;10.50;99.90;;;;;;4999897;28;20332;-70
2023/12/24 13:28:12;;;;;;;;;;;10.40;99.90;;;;;;5000647;28;19929;-71
2023/12/24 13:30:40;;;;;;;;;;;10.50;99.90;;;;;;4999326;28;19929;-71
2023/12/24 13:33:10;;;;;;;;;;;10.50;99.90;;;;;;4998696;28;19931;-72
2023/12/24 13:35:39;;;;;;;;;;;10.50;99.90;;;;;;4999891;28;19922;-73
2023/12/24 13:38:09;;;;;;;;;;;10.50;99.90;;;;;;5004412;28;19944;-72
2023/12/24 13:40:39;;;;;;;;;;;10.50;99.90;;;;;;5009862;28;19969;-73
2023/12/24 13:43:07;;;;;;;;;;;10.50;99.90;;;;;;4999900;28;19928;-73
2023/12/24 13:45:35;;;;;;;;;;;10.40;99.90;;;;;;5004958;28;19925;-72
2023/12/24 13:48:04;;;;;;;;;;;10.40;99.90;;;;;;4991881;28;19925;-72
2023/12/24 13:50:32;;;;;;;;;;;10.30;99.90;;;;;;5009799;28;20001;-72
2023/12/24 13:53:00;;;;;;;;;;;10.20;99.90;;;;;;5003122;28;19991;-72
2023/12/24 13:55:49;;;;;;;;;;;10.20;99.90;;;;;;4992156;28;19928;-72
2023/12/24 13:58:17;;;;;;;;;;;10.10;99.90;;;;;;5004791;28;19921;-72
2023/12/24 14:00:45;;;;;;;;;;;10.10;99.90;;;;;;5010740;28;19928;-72
2023/12/24 14:03:13;;;;;;;;;;;10.10;99.90;;;;;;5010831;28;19968;-72
2023/12/24 14:05:41;;;;;;;;;;;10.10;99.90;;;;;;5010255;28;20012;-71
2023/12/24 14:08:10;;;;;;;;;;;10.10;99.90;;;;;;5010055;28;20295;-71
2023/12/24 14:10:38;;;;;;;;;;;10.00;99.90;;;;;;5010957;28;20408;-71
2023/12/24 14:13:08;;;;;;;;;;;10.00;99.90;;;;;;5010778;28;19975;-72
2023/12/24 14:15:39;;;;;;;;;;;10.00;99.90;;;;;;5010463;28;19925;-70
2023/12/24 14:18:07;;;;;;;;;;;9.90;99.90;;;;;;5009388;28;20651;-71
2023/12/24 14:20:41;;;;;;;;;;;9.90;99.90;;;;;;5010629;28;19960;-72
2023/12/24 14:23:13;;;;;;;;;;;9.90;99.90;;;;;;5004176;28;19921;-72
2023/12/24 14:25:40;;;;;;;;;;;9.90;99.90;;;;;;4993907;28;19929;-72
2023/12/24 14:28:10;;;;;;;;;;;9.80;99.90;;;;;;5013025;28;19944;-72
2023/12/24 14:30:37;;;;;;;;;;;9.80;99.90;;;;;;5013842;28;19922;-71
2023/12/24 14:33:05;;;;;;;;;;;9.80;99.90;;;;;;5013652;28;19922;-72
2023/12/24 14:35:33;;;;;;;;;;;9.80;99.90;;;;;;5013824;28;19925;-73